createdAt,value
2023-02-22T00:00:01.796Z,83.4
2023-02-22T00:01:02.281Z,83.3
2023-02-22T00:02:01.748Z,83.3
2023-02-22T00:03:02.367Z,83.3
2023-02-22T00:04:01.717Z,83.3
2023-02-22T00:05:02.230Z,83.2
2023-02-22T00:06:01.629Z,83.2
2023-02-22T00:07:03.797Z,83.1
2023-02-22T00:08:03.320Z,83.1
2023-02-22T00:09:03.715Z,83
2023-02-22T00:10:03.268Z,82.9
2023-02-22T00:11:03.723Z,82.9
2023-02-22T00:12:03.173Z,83
2023-02-22T00:13:01.953Z,83
2023-02-22T00:14:01.486Z,83.1
2023-02-22T00:15:01.879Z,83.1
2023-02-22T00:16:01.473Z,83.2
2023-02-22T00:17:01.875Z,83.1
2023-02-22T00:18:02.999Z,83
2023-02-22T00:19:01.812Z,82.9
2023-02-22T00:20:03.963Z,82.9
2023-02-22T00:21:01.847Z,82.8
2023-02-22T00:22:02.289Z,82.8
2023-02-22T00:23:03.399Z,82.7
2023-02-22T00:24:03.877Z,82.7
2023-02-22T00:25:01.720Z,82.7
2023-02-22T00:26:02.222Z,82.7
2023-02-22T00:27:01.626Z,82.7
2023-02-22T00:28:03.802Z,82.6
2023-02-22T00:29:01.639Z,82.8
2023-02-22T00:30:03.806Z,83
2023-02-22T00:31:01.572Z,83.1
2023-02-22T00:32:02.122Z,83.2
2023-02-22T00:33:01.564Z,83.2
2023-02-22T00:34:03.720Z,83.3
2023-02-22T00:35:01.478Z,83.3
2023-02-22T00:36:01.979Z,83.4
2023-02-22T00:37:03.106Z,83.5
2023-02-22T00:38:03.642Z,83.4
2023-02-22T00:39:01.406Z,83.3
2023-02-22T00:40:03.554Z,83.3
2023-02-22T00:41:01.391Z,83.4
2023-02-22T00:42:03.576Z,83.5
2023-02-22T00:43:01.308Z,83.6
2023-02-22T00:44:01.793Z,83.8
2023-02-22T00:45:02.279Z,83.9
2023-02-22T00:46:01.750Z,83.9
2023-02-22T00:47:03.883Z,84
2023-02-22T00:48:01.718Z,84
2023-02-22T00:49:03.889Z,83.9
2023-02-22T00:50:03.313Z,83.9
2023-02-22T00:51:02.116Z,83.7
2023-02-22T00:52:01.662Z,83.7
2023-02-22T00:53:02.127Z,83.7
2023-02-22T00:54:01.552Z,83.6
2023-02-22T00:55:02.037Z,83.6
2023-02-22T00:56:03.160Z,83.7
2023-02-22T00:57:03.751Z,83.7
2023-02-22T00:58:01.475Z,83.8
2023-02-22T00:59:01.960Z,83.9
2023-02-22T01:00:01.480Z,83.8
2023-02-22T01:01:02.031Z,83.7
2023-02-22T01:02:01.435Z,83.6
2023-02-22T01:03:01.935Z,83.7
2023-02-22T01:04:01.400Z,83.8
2023-02-22T01:05:01.923Z,83.8
2023-02-22T01:06:01.328Z,83.9
2023-02-22T01:07:01.788Z,83.8
2023-02-22T01:08:01.346Z,83.9
2023-02-22T01:09:03.480Z,83.9
2023-02-22T01:10:02.272Z,83.8
2023-02-22T01:11:01.720Z,83.8
2023-02-22T01:12:03.992Z,83.8
2023-02-22T01:13:01.724Z,83.7
2023-02-22T01:14:02.194Z,83.7
2023-02-22T01:15:01.640Z,83.7
2023-02-22T01:16:02.204Z,83.7
2023-02-22T01:17:01.643Z,83.9
2023-02-22T01:18:03.804Z,84
2023-02-22T01:19:03.321Z,84.1
2023-02-22T01:20:02.136Z,84.1
2023-02-22T01:21:01.567Z,84.1
2023-02-22T01:22:02.046Z,84.2
2023-02-22T01:23:01.587Z,84.2
2023-02-22T01:24:02.048Z,84.3
2023-02-22T01:25:01.496Z,84.2
2023-02-22T01:26:01.963Z,84.2
2023-02-22T01:27:01.472Z,84.3
2023-02-22T01:28:01.972Z,84.4
2023-02-22T01:29:01.480Z,84.4
2023-02-22T01:30:01.951Z,84.5
2023-02-22T01:31:01.606Z,84.5
2023-02-22T01:32:01.957Z,84.4
2023-02-22T01:33:03.135Z,84.4
2023-02-22T01:34:01.891Z,84.4
2023-02-22T01:35:01.320Z,84.3
2023-02-22T01:36:01.791Z,84.3
2023-02-22T01:38:01.800Z,84.3
2023-02-22T01:39:02.300Z,84.2
2023-02-22T01:40:01.793Z,84.2
2023-02-22T01:41:02.268Z,84.1
2023-02-22T01:42:01.724Z,84.1
2023-02-22T01:43:02.220Z,84.2
2023-02-22T01:44:03.400Z,84.1
2023-02-22T01:45:02.190Z,84.1
2023-02-22T01:46:01.790Z,84.2
2023-02-22T01:47:02.237Z,84.4
2023-02-22T01:48:03.384Z,84.4
2023-02-22T01:49:02.193Z,84.2
2023-02-22T01:50:01.665Z,84.3
2023-02-22T01:51:02.127Z,84.3
2023-02-22T01:52:03.340Z,84.4
2023-02-22T01:53:02.139Z,84.5
2023-02-22T01:54:01.567Z,84.5
2023-02-22T01:55:02.038Z,84.5
2023-02-22T01:56:01.580Z,84.5
2023-02-22T01:57:01.821Z,84.5
2023-02-22T01:58:02.285Z,84.4
2023-02-22T01:59:01.807Z,84.3
2023-02-22T02:00:03.946Z,84.3
2023-02-22T02:01:01.712Z,84.4
2023-02-22T02:02:03.890Z,84.4
2023-02-22T02:03:01.728Z,84.4
2023-02-22T02:04:02.267Z,84.4
2023-02-22T02:05:01.660Z,84.5
2023-02-22T02:06:02.101Z,84.5
2023-02-22T02:07:03.317Z,84.5
2023-02-22T02:08:03.806Z,84.6
2023-02-22T02:09:01.560Z,84.6
2023-02-22T02:10:02.049Z,84.7
2023-02-22T02:11:03.162Z,84.8
2023-02-22T02:12:01.950Z,84.8
2023-02-22T02:13:01.480Z,84.7
2023-02-22T02:14:01.991Z,84.7
2023-02-22T02:15:01.397Z,84.6
2023-02-22T02:16:01.881Z,84.6
2023-02-22T02:17:01.583Z,84.7
2023-02-22T02:18:01.893Z,84.7
2023-02-22T02:19:03.029Z,84.8
2023-02-22T02:20:01.799Z,84.8
2023-02-22T02:21:02.274Z,84.7
2023-02-22T02:22:01.797Z,84.7
2023-02-22T02:23:02.281Z,84.6
2023-02-22T02:24:01.705Z,84.6
2023-02-22T02:25:03.896Z,84.6
2023-02-22T02:26:01.720Z,84.6
2023-02-22T02:27:03.875Z,84.6
2023-02-22T02:28:01.634Z,84.6
2023-02-22T02:29:02.118Z,84.7
2023-02-22T02:30:01.646Z,84.6
2023-02-22T02:31:03.849Z,84.6
2023-02-22T02:32:01.921Z,84.7
2023-02-22T02:33:02.034Z,84.7
2023-02-22T02:34:01.589Z,84.8
2023-02-22T02:35:02.038Z,84.9
2023-02-22T02:36:01.480Z,85
2023-02-22T02:37:01.967Z,85
2023-02-22T02:38:01.481Z,85
2023-02-22T02:39:03.657Z,85.1
2023-02-22T02:40:01.428Z,85.1
2023-02-22T02:41:01.881Z,85
2023-02-22T02:42:03.080Z,85
2023-02-22T02:43:01.875Z,85
2023-02-22T02:44:01.309Z,85
2023-02-22T02:45:01.819Z,84.9
2023-02-22T02:46:02.277Z,85
2023-02-22T02:47:03.472Z,85
2023-02-22T02:48:03.881Z,85
2023-02-22T02:49:01.746Z,84.9
2023-02-22T02:50:03.881Z,84.9
2023-02-22T02:51:01.634Z,84.8
2023-02-22T02:52:02.125Z,84.7
2023-02-22T02:53:01.648Z,84.7
2023-02-22T02:54:03.827Z,84.7
2023-02-22T02:55:01.548Z,84.7
2023-02-22T02:56:02.991Z,84.8
2023-02-22T02:57:02.835Z,84.9
2023-02-22T02:58:02.191Z,85
2023-02-22T02:59:01.718Z,85.1
2023-02-22T03:00:02.204Z,85.1
2023-02-22T03:01:03.316Z,85.1
2023-02-22T03:02:02.111Z,85.2
2023-02-22T03:03:01.653Z,85.2
2023-02-22T03:04:02.120Z,85.2
2023-02-22T03:05:01.584Z,85.1
2023-02-22T03:06:03.713Z,85
2023-02-22T03:07:01.573Z,85
2023-02-22T03:08:03.638Z,84.9
2023-02-22T03:09:01.469Z,84.9
2023-02-22T03:10:01.979Z,84.8
2023-02-22T03:11:01.394Z,84.8
2023-02-22T03:12:01.876Z,84.8
2023-02-22T03:13:01.313Z,84.8
2023-02-22T03:14:01.797Z,84.8
2023-02-22T03:16:01.884Z,84.9
2023-02-22T03:17:02.280Z,84.9
2023-02-22T03:18:01.715Z,84.9
2023-02-22T03:19:03.960Z,84.9
2023-02-22T03:20:01.796Z,84.9
2023-02-22T03:21:02.190Z,84.9
2023-02-22T03:22:03.317Z,84.9
2023-02-22T03:23:03.820Z,84.9
2023-02-22T03:24:01.650Z,84.9
2023-02-22T03:25:02.212Z,84.9
2023-02-22T03:26:03.240Z,85
2023-02-22T03:27:02.063Z,85.1
2023-02-22T03:28:03.233Z,85.1
2023-02-22T03:29:02.046Z,85.2
2023-02-22T03:30:01.523Z,85.2
2023-02-22T03:31:02.156Z,85.3
2023-02-22T03:32:03.200Z,85.3
2023-02-22T03:33:01.993Z,85.3
2023-02-22T03:34:01.453Z,85.3
2023-02-22T03:35:03.600Z,85.3
2023-02-22T03:36:01.398Z,85.3
2023-02-22T03:37:01.875Z,85.2
2023-02-22T03:38:01.321Z,85.1
2023-02-22T03:39:01.804Z,85.1
2023-02-22T03:40:02.287Z,85.1
2023-02-22T03:41:01.815Z,85.1
2023-02-22T03:42:02.288Z,85.1
2023-02-22T03:43:03.426Z,85.2
2023-02-22T03:44:03.906Z,85.2
2023-02-22T03:45:01.768Z,85.3
2023-02-22T03:46:02.246Z,85.4
2023-02-22T03:47:03.320Z,85.4
2023-02-22T03:48:02.159Z,85.4
2023-02-22T03:49:01.657Z,85.4
2023-02-22T03:50:03.793Z,85.4
2023-02-22T03:51:03.243Z,85.4
2023-02-22T03:52:02.060Z,85.4
2023-02-22T03:53:01.565Z,85.4
2023-02-22T03:54:02.064Z,85.4
2023-02-22T03:55:01.485Z,85.4
2023-02-22T03:56:02.934Z,85.4
2023-02-22T03:57:01.650Z,85.4
2023-02-22T03:58:02.123Z,85.4
2023-02-22T03:59:01.650Z,85.3
2023-02-22T04:00:02.160Z,85.3
2023-02-22T04:01:03.234Z,85.4
2023-02-22T04:02:02.056Z,85.5
2023-02-22T04:03:01.559Z,85.5
2023-02-22T04:04:01.966Z,85.5
2023-02-22T04:05:01.580Z,85.5
2023-02-22T04:06:03.645Z,85.5
2023-02-22T04:07:03.093Z,85.5
2023-02-22T04:08:01.893Z,85.5
2023-02-22T04:09:01.323Z,85.6
2023-02-22T04:10:01.826Z,85.5
2023-02-22T04:11:02.288Z,85.5
2023-02-22T04:12:01.732Z,85.5
2023-02-22T04:13:02.230Z,85.6
2023-02-22T04:14:01.730Z,85.6
2023-02-22T04:15:02.211Z,85.5
2023-02-22T04:16:01.670Z,85.4
2023-02-22T04:17:03.801Z,85.3
2023-02-22T04:18:01.677Z,85.2
2023-02-22T04:19:02.165Z,85.1
2023-02-22T04:20:01.587Z,85.1
2023-02-22T04:21:02.053Z,85.2
2023-02-22T04:22:01.566Z,85.2
2023-02-22T04:23:02.065Z,85.2
2023-02-22T04:24:01.527Z,85.2
2023-02-22T04:25:01.981Z,85.2
2023-02-22T04:26:01.501Z,85.2
2023-02-22T04:27:01.964Z,85.2
2023-02-22T04:28:01.418Z,85.1
2023-02-22T04:29:01.915Z,85
2023-02-22T04:30:01.425Z,85
2023-02-22T04:31:01.934Z,85
2023-02-22T04:32:01.355Z,85.1
2023-02-22T04:33:01.816Z,85.2
2023-02-22T04:34:02.278Z,85.2
2023-02-22T04:35:01.840Z,85.2
2023-02-22T04:36:02.274Z,85.1
2023-02-22T04:37:03.405Z,85
2023-02-22T04:38:03.896Z,85.1
2023-02-22T04:39:01.743Z,85
2023-02-22T04:40:03.952Z,84.9
2023-02-22T04:41:01.650Z,84.9
2023-02-22T04:42:02.136Z,85
2023-02-22T04:43:03.329Z,85.2
2023-02-22T04:44:02.132Z,85.2
2023-02-22T04:45:03.282Z,85.3
2023-02-22T04:46:03.807Z,85.3
2023-02-22T04:47:01.575Z,85.3
2023-02-22T04:48:02.047Z,85.3
2023-02-22T04:49:01.483Z,85.3
2023-02-22T04:50:01.972Z,85.3
2023-02-22T04:51:01.517Z,85.3
2023-02-22T04:52:01.961Z,85.4
2023-02-22T04:53:01.417Z,85.5
2023-02-22T04:54:03.585Z,85.5
2023-02-22T04:55:03.076Z,85.5
2023-02-22T04:56:01.932Z,85.6
2023-02-22T04:57:03.013Z,85.6
2023-02-22T04:58:01.820Z,85.7
2023-02-22T04:59:02.297Z,85.8
2023-02-22T05:00:03.491Z,85.8
2023-02-22T05:01:02.318Z,85.9
2023-02-22T05:02:01.800Z,85.8
2023-02-22T05:03:02.206Z,85.7
2023-02-22T05:04:01.729Z,85.7
2023-02-22T05:05:02.343Z,85.8
2023-02-22T05:06:03.356Z,85.8
2023-02-22T05:07:02.123Z,85.7
2023-02-22T05:08:03.325Z,85.7
2023-02-22T05:09:02.234Z,85.8
2023-02-22T05:10:01.584Z,85.7
2023-02-22T05:11:02.045Z,85.7
2023-02-22T05:12:01.581Z,85.7
2023-02-22T05:13:04.027Z,85.7
2023-02-22T05:14:03.169Z,85.7
2023-02-22T05:15:03.629Z,85.7
2023-02-22T05:16:01.506Z,85.8
2023-02-22T05:17:01.984Z,85.8
2023-02-22T05:18:01.413Z,85.9
2023-02-22T05:19:01.883Z,85.9
2023-02-22T05:20:01.403Z,85.8
2023-02-22T05:21:03.569Z,85.8
2023-02-22T05:22:01.405Z,85.8
2023-02-22T05:23:01.892Z,85.7
2023-02-22T05:25:01.817Z,85.7
2023-02-22T05:26:02.284Z,85.7
2023-02-22T05:27:03.496Z,85.7
2023-02-22T05:28:02.272Z,85.7
2023-02-22T05:29:01.719Z,85.8
2023-02-22T05:30:03.880Z,85.8
2023-02-22T05:31:01.751Z,85.8
2023-02-22T05:32:02.298Z,85.7
2023-02-22T05:33:01.758Z,85.6
2023-02-22T05:34:03.873Z,85.7
2023-02-22T05:35:01.630Z,85.7
2023-02-22T05:36:02.119Z,85.7
2023-02-22T05:37:01.672Z,85.7
2023-02-22T05:38:03.806Z,85.7
2023-02-22T05:39:03.233Z,85.8
2023-02-22T05:40:02.032Z,85.7
2023-02-22T05:41:03.232Z,85.8
2023-02-22T05:42:02.041Z,85.8
2023-02-22T05:43:01.495Z,85.8
2023-02-22T05:44:01.977Z,85.9
2023-02-22T05:45:01.475Z,85.9
2023-02-22T05:46:03.635Z,85.8
2023-02-22T05:47:03.076Z,85.8
2023-02-22T05:48:01.864Z,85.7
2023-02-22T05:49:01.456Z,85.8
2023-02-22T05:50:01.890Z,85.7
2023-02-22T05:51:02.988Z,85.7
2023-02-22T05:52:01.892Z,85.7
2023-02-22T05:53:01.342Z,85.8
2023-02-22T05:54:01.820Z,85.8
2023-02-22T05:56:04.655Z,85.8
2023-02-22T05:57:03.083Z,85.8
2023-02-22T05:58:03.557Z,85.8
2023-02-22T05:59:02.995Z,85.8
2023-02-22T06:00:01.798Z,85.8
2023-02-22T06:01:03.395Z,85.7
2023-02-22T06:02:01.857Z,85.7
2023-02-22T06:03:02.271Z,85.7
2023-02-22T06:04:01.720Z,85.7
2023-02-22T06:05:02.215Z,85.8
2023-02-22T06:06:01.712Z,85.8
2023-02-22T06:07:02.220Z,85.9
2023-02-22T06:08:01.630Z,85.9
2023-02-22T06:09:02.140Z,85.8
2023-02-22T06:10:01.827Z,85.8
2023-02-22T06:11:02.122Z,85.8
2023-02-22T06:12:01.545Z,85.8
2023-02-22T06:13:02.042Z,85.8
2023-02-22T06:14:03.149Z,85.9
2023-02-22T06:15:01.975Z,85.8
2023-02-22T06:16:01.507Z,85.8
2023-02-22T06:17:01.972Z,85.7
2023-02-22T06:18:01.396Z,85.7
2023-02-22T06:19:01.885Z,85.6
2023-02-22T06:20:01.408Z,85.6
2023-02-22T06:21:01.916Z,85.6
2023-02-22T06:22:01.356Z,85.6
2023-02-22T06:23:01.798Z,85.7
2023-02-22T06:24:02.393Z,85.7
2023-02-22T06:25:01.825Z,85.6
2023-02-22T06:26:03.966Z,85.6
2023-02-22T06:27:03.434Z,85.6
2023-02-22T06:28:02.198Z,85.6
2023-02-22T06:29:01.629Z,85.6
2023-02-22T06:30:02.210Z,85.6
2023-02-22T06:31:01.642Z,85.6
2023-02-22T06:32:02.263Z,85.6
2023-02-22T06:33:03.277Z,85.6
2023-02-22T06:34:03.714Z,85.5
2023-02-22T06:35:01.588Z,85.5
2023-02-22T06:36:02.088Z,85.6
2023-02-22T06:37:01.484Z,85.6
2023-02-22T06:38:03.639Z,85.6
2023-02-22T06:39:01.393Z,85.5
2023-02-22T06:40:05.517Z,85.4
2023-02-22T06:41:01.437Z,85.4
2023-02-22T06:42:01.946Z,85.4
2023-02-22T06:43:01.326Z,85.5
2023-02-22T06:44:01.796Z,85.5
2023-02-22T06:45:02.289Z,85.5
2023-02-22T06:46:03.541Z,85.5
2023-02-22T06:47:02.278Z,85.4
2023-02-22T06:48:01.726Z,85.4
2023-02-22T06:49:02.214Z,85.4
2023-02-22T06:50:01.737Z,85.3
2023-02-22T06:51:02.213Z,85.3
2023-02-22T06:52:01.651Z,85.3
2023-02-22T06:53:02.112Z,85.4
2023-02-22T06:54:03.314Z,85.3
2023-02-22T06:55:02.154Z,85.3
2023-02-22T06:56:01.652Z,85.3
2023-02-22T06:57:02.066Z,85.2
2023-02-22T06:58:01.564Z,85.1
2023-02-22T06:59:02.870Z,85
2023-02-22T07:00:01.518Z,85
2023-02-22T07:01:01.978Z,84.9
2023-02-22T07:02:01.504Z,84.9
2023-02-22T07:03:02.042Z,84.9
2023-02-22T07:04:03.074Z,84.9
2023-02-22T07:05:01.907Z,84.8
2023-02-22T07:06:01.411Z,84.8
2023-02-22T07:07:01.925Z,85
2023-02-22T07:08:01.327Z,85.1
2023-02-22T07:09:01.806Z,85.1
2023-02-22T07:10:02.317Z,84.9
2023-02-22T07:11:01.827Z,84.8
2023-02-22T07:12:02.296Z,84.7
2023-02-22T07:13:01.742Z,84.8
2023-02-22T07:14:03.944Z,84.8
2023-02-22T07:15:01.728Z,84.7
2023-02-22T07:16:02.350Z,84.7
2023-02-22T07:17:03.332Z,84.6
2023-02-22T07:18:02.195Z,84.6
2023-02-22T07:19:01.657Z,84.6
2023-02-22T07:20:02.122Z,84.5
2023-02-22T07:21:01.663Z,84.5
2023-02-22T07:22:02.131Z,84.4
2023-02-22T07:23:01.648Z,84.4
2023-02-22T07:24:03.979Z,84.3
2023-02-22T07:25:01.581Z,84.3
2023-02-22T07:26:02.044Z,84.2
2023-02-22T07:27:01.562Z,84.2
2023-02-22T07:28:02.036Z,84.2
2023-02-22T07:29:01.567Z,84.2
2023-02-22T07:30:02.050Z,84.2
2023-02-22T07:31:03.173Z,84.2
2023-02-22T07:32:01.979Z,84.2
2023-02-22T07:33:01.552Z,84.5
2023-02-22T07:34:01.968Z,84.5
2023-02-22T07:35:01.388Z,84.4
2023-02-22T07:36:01.899Z,84.3
2023-02-22T07:37:01.388Z,84.2
2023-02-22T07:38:01.887Z,84.4
2023-02-22T07:39:01.395Z,84.6
2023-02-22T07:40:01.899Z,84.6
2023-02-22T07:41:03.021Z,84.4
2023-02-22T07:42:01.798Z,84.2
2023-02-22T07:43:05.932Z,84
2023-02-22T07:44:01.807Z,84
2023-02-22T07:45:02.273Z,84.1
2023-02-22T07:46:01.743Z,84.1
2023-02-22T07:47:02.229Z,84.1
2023-02-22T07:48:03.393Z,83.9
2023-02-22T07:49:02.177Z,83.9
2023-02-22T07:50:03.440Z,84.1
2023-02-22T07:51:02.188Z,84.1
2023-02-22T07:52:01.696Z,84
2023-02-22T07:53:02.212Z,84
2023-02-22T07:54:01.627Z,83.8
2023-02-22T07:55:02.112Z,83.6
2023-02-22T07:56:03.322Z,83.7
2023-02-22T07:57:02.134Z,83.7
2023-02-22T07:58:01.565Z,83.8
2023-02-22T07:59:02.028Z,83.7
2023-02-22T08:00:01.574Z,83.7
2023-02-22T08:01:01.959Z,83.7
2023-02-22T08:02:01.526Z,83.5
2023-02-22T08:03:01.971Z,83.3
2023-02-22T08:04:03.070Z,83.2
2023-02-22T08:05:01.902Z,83.1
2023-02-22T08:06:01.404Z,82.7
2023-02-22T08:07:01.905Z,82.5
2023-02-22T08:09:01.808Z,82.4
2023-02-22T08:10:02.280Z,82.5
2023-02-22T08:11:01.816Z,82.6
2023-02-22T08:12:02.196Z,82.7
2023-02-22T08:13:03.392Z,82.6
2023-02-22T08:14:02.205Z,82.5
2023-02-22T08:15:01.637Z,82.5
2023-02-22T08:16:03.835Z,82.5
2023-02-22T08:17:01.606Z,82.6
2023-02-22T08:18:03.802Z,82.5
2023-02-22T08:19:01.590Z,82.5
2023-02-22T08:20:02.035Z,82.1
2023-02-22T08:21:01.485Z,82.3
2023-02-22T08:22:03.645Z,82.3
2023-02-22T08:23:01.476Z,82.3
2023-02-22T08:24:01.969Z,82.4
2023-02-22T08:25:01.412Z,82.3
2023-02-22T08:26:01.882Z,82.3
2023-02-22T08:27:03.083Z,82.2
2023-02-22T08:28:03.556Z,82.4
2023-02-22T08:29:02.998Z,82.2
2023-02-22T08:30:01.802Z,81.5
2023-02-22T08:31:02.293Z,81.2
2023-02-22T08:32:01.967Z,81.5
2023-02-22T08:33:02.464Z,80.9
2023-02-22T08:34:03.394Z,80.8
2023-02-22T08:35:02.419Z,81.1
2023-02-22T08:36:03.413Z,81.2
2023-02-22T08:37:02.228Z,81.3
2023-02-22T08:38:03.332Z,81.2
2023-02-22T08:39:02.126Z,80.8
2023-02-22T08:40:03.334Z,80.3
2023-02-22T08:41:02.129Z,80.3
2023-02-22T08:42:01.567Z,80.4
2023-02-22T08:43:03.725Z,80.5
2023-02-22T08:44:01.489Z,80.6
2023-02-22T08:45:01.968Z,80.7
2023-02-22T08:46:01.528Z,79.9
2023-02-22T08:47:01.965Z,80
2023-02-22T08:48:03.083Z,80
2023-02-22T08:49:01.876Z,79.6
2023-02-22T08:50:01.331Z,79
2023-02-22T08:51:01.833Z,79.5
2023-02-22T08:52:02.287Z,79.6
2023-02-22T08:53:01.885Z,79.7
2023-02-22T08:54:03.957Z,79.8
2023-02-22T08:55:02.706Z,79.3
2023-02-22T08:56:01.403Z,79.3
2023-02-22T08:57:01.906Z,79.1
2023-02-22T08:58:01.461Z,78.9
2023-02-22T08:59:01.878Z,79
2023-02-22T09:00:01.320Z,79.3
2023-02-22T09:01:01.799Z,78.8
2023-02-22T09:02:03.996Z,78.8
2023-02-22T09:03:01.821Z,78
2023-02-22T09:04:02.322Z,78
2023-02-22T09:05:01.716Z,77.8
2023-02-22T09:06:02.220Z,77.9
2023-02-22T09:07:01.717Z,78.2
2023-02-22T09:08:03.871Z,78
2023-02-22T09:09:01.685Z,78.1
2023-02-22T09:10:03.788Z,78.1
2023-02-22T09:11:01.642Z,77.8
2023-02-22T09:12:02.121Z,78.1
2023-02-22T09:13:01.731Z,77.1
2023-02-22T09:14:02.039Z,76.5
2023-02-22T09:15:03.251Z,75.5
2023-02-22T09:16:03.743Z,75.5
2023-02-22T09:17:01.464Z,76
2023-02-22T09:18:01.994Z,75.9
2023-02-22T09:19:01.481Z,76.1
2023-02-22T09:20:03.631Z,76
2023-02-22T09:21:03.151Z,75.6
2023-02-22T09:22:01.951Z,75.1
2023-02-22T09:23:01.421Z,75.7
2023-02-22T09:24:01.864Z,76
2023-02-22T09:25:15.907Z,76.3
2023-02-22T09:26:03.551Z,76.2
2023-02-22T09:27:01.308Z,75.6
2023-02-22T09:28:01.813Z,75.7
2023-02-22T09:29:02.301Z,76.1
2023-02-22T09:30:01.858Z,76
2023-02-22T09:31:02.275Z,76.2
2023-02-22T09:32:01.857Z,76.2
2023-02-22T09:33:04.000Z,76.6
2023-02-22T09:34:04.189Z,75.9
2023-02-22T09:35:03.864Z,75.9
2023-02-22T09:36:01.689Z,75.4
2023-02-22T09:37:02.206Z,74.9
2023-02-22T09:38:01.632Z,74.7
2023-02-22T09:39:02.129Z,75.7
2023-02-22T09:40:01.873Z,74.9
2023-02-22T09:41:03.818Z,74.5
2023-02-22T09:42:01.606Z,75.8
2023-02-22T09:43:03.708Z,75.9
2023-02-22T09:44:01.559Z,75.9
2023-02-22T09:45:02.085Z,75.2
2023-02-22T09:46:01.600Z,75.7
2023-02-22T09:47:02.090Z,75.5
2023-02-22T09:48:11.711Z,75.6
2023-02-22T09:49:01.960Z,74.8
2023-02-22T09:50:03.149Z,75.4
2023-02-22T09:51:01.945Z,75.3
2023-02-22T09:52:01.409Z,75.1
2023-02-22T09:53:01.957Z,75.1
2023-02-22T09:54:01.409Z,75.6
2023-02-22T09:55:02.026Z,74.7
2023-02-22T09:56:03.120Z,74.4
2023-02-22T09:57:01.933Z,74
2023-02-22T09:58:03.114Z,74.2
2023-02-22T09:59:01.817Z,74.4
2023-02-22T10:00:02.297Z,73.6
2023-02-22T10:01:01.799Z,73.8
2023-02-22T10:02:02.304Z,73.3
2023-02-22T10:03:01.709Z,74.2
2023-02-22T10:04:02.337Z,73
2023-02-22T10:05:01.746Z,72.6
2023-02-22T10:06:02.219Z,73.2
2023-02-22T10:07:01.747Z,73.4
2023-02-22T10:08:02.190Z,73.3
2023-02-22T10:09:03.305Z,72.5
2023-02-22T10:10:02.131Z,72.4
2023-02-22T10:11:01.559Z,72.6
2023-02-22T10:12:02.045Z,71.6
2023-02-22T10:13:01.554Z,71.3
2023-02-22T10:14:02.034Z,71.6
2023-02-22T10:15:01.481Z,71.3
2023-02-22T10:16:01.985Z,70.8
2023-02-22T10:17:01.476Z,71.1
2023-02-22T10:18:01.962Z,72.7
2023-02-22T10:19:03.091Z,72.2
2023-02-22T10:20:01.889Z,72.5
2023-02-22T10:21:01.330Z,72.4
2023-02-22T10:22:01.791Z,71.3
2023-02-22T10:23:02.270Z,71.2
2023-02-22T10:24:01.731Z,71.2
2023-02-22T10:25:02.277Z,71.3
2023-02-22T10:26:01.728Z,71.3
2023-02-22T10:27:02.259Z,72.4
2023-02-22T10:28:03.320Z,70.4
2023-02-22T10:29:03.933Z,70.5
2023-02-22T10:30:03.941Z,71.9
2023-02-22T10:31:02.340Z,70.9
2023-02-22T10:32:01.720Z,71.7
2023-02-22T10:33:03.778Z,72.4
2023-02-22T10:34:01.557Z,71.2
2023-02-22T10:35:02.062Z,71.5
2023-02-22T10:36:01.526Z,71.5
2023-02-22T10:37:01.969Z,70.6
2023-02-22T10:38:01.492Z,70.7
2023-02-22T10:39:02.011Z,71.6
2023-02-22T10:40:01.415Z,70.6
2023-02-22T10:41:03.594Z,70.2
2023-02-22T10:42:03.005Z,69.6
2023-02-22T10:43:01.899Z,70.3
2023-02-22T10:44:01.345Z,70.8
2023-02-22T10:45:01.811Z,70.2
2023-02-22T10:46:04.065Z,69.6
2023-02-22T10:47:01.811Z,70.5
2023-02-22T10:48:02.313Z,70.5
2023-02-22T10:49:03.410Z,70.1
2023-02-22T10:50:02.212Z,70.9
2023-02-22T10:51:01.722Z,70.1
2023-02-22T10:52:02.220Z,69.3
2023-02-22T10:53:01.700Z,70.7
2023-02-22T10:54:03.124Z,69.6
2023-02-22T10:55:14.631Z,68.9
2023-02-22T10:56:02.361Z,68.7
2023-02-22T10:57:01.819Z,69.1
2023-02-22T10:58:03.887Z,68.5
2023-02-22T10:59:03.445Z,69
2023-02-22T11:00:02.201Z,70.8
2023-02-22T11:01:01.747Z,69.2
2023-02-22T11:02:02.196Z,68.9
2023-02-22T11:03:01.647Z,70
2023-02-22T11:04:03.799Z,69.3
2023-02-22T11:05:01.619Z,69.7
2023-02-22T11:06:02.125Z,69.4
2023-02-22T11:07:01.579Z,69.1
2023-02-22T11:08:02.056Z,68.6
2023-02-22T11:09:01.558Z,69.7
2023-02-22T11:10:02.040Z,68.9
2023-02-22T11:11:01.475Z,69.1
2023-02-22T11:12:01.956Z,69.6
2023-02-22T11:13:01.482Z,69.3
2023-02-22T11:14:01.962Z,69.9
2023-02-22T11:15:01.402Z,69.9
2023-02-22T11:16:01.952Z,69
2023-02-22T11:17:01.433Z,68.2
2023-02-22T11:18:01.937Z,68.7
2023-02-22T11:19:03.001Z,68.6
2023-02-22T11:20:01.794Z,69
2023-02-22T11:21:02.281Z,68.8
2023-02-22T11:22:01.722Z,69.2
2023-02-22T11:23:02.298Z,68.3
2023-02-22T11:24:01.720Z,68.8
2023-02-22T11:25:02.501Z,70.6
2023-02-22T11:26:01.717Z,70.1
2023-02-22T11:27:02.224Z,69.2
2023-02-22T11:28:01.645Z,69.1
2023-02-22T11:29:02.139Z,69.4
2023-02-22T11:30:01.640Z,69.4
2023-02-22T11:31:02.194Z,69.6
2023-02-22T11:32:01.577Z,70.7
2023-02-22T11:33:03.712Z,69
2023-02-22T11:34:01.547Z,69.1
2023-02-22T11:35:09.064Z,69.6
2023-02-22T11:36:01.470Z,69.2
2023-02-22T11:37:01.957Z,68.6
2023-02-22T11:38:01.402Z,69.7
2023-02-22T11:39:01.885Z,69.7
2023-02-22T11:40:01.401Z,70.2
2023-02-22T11:41:01.939Z,70.1
2023-02-22T11:42:02.982Z,69.8
2023-02-22T11:43:01.778Z,69.3
2023-02-22T11:44:01.322Z,69.8
2023-02-22T11:45:03.467Z,68.7
2023-02-22T11:46:04.035Z,69.2
2023-02-22T11:47:01.792Z,69.3
2023-02-22T11:48:02.268Z,69.7
2023-02-22T11:49:03.384Z,70.4
2023-02-22T11:50:03.866Z,68.3
2023-02-22T11:51:01.635Z,68.7
2023-02-22T11:52:02.221Z,69.4
2023-02-22T11:53:02.616Z,69.8
2023-02-22T11:54:01.311Z,70
2023-02-22T11:55:01.881Z,69.2
2023-02-22T11:56:02.281Z,69.1
2023-02-22T11:57:01.805Z,68.9
2023-02-22T11:58:02.300Z,68.6
2023-02-22T11:59:01.713Z,69.9
2023-02-22T12:00:02.201Z,69
2023-02-22T12:01:01.742Z,69.4
2023-02-22T12:02:02.192Z,68.7
2023-02-22T12:03:03.319Z,69.3
2023-02-22T12:04:02.216Z,68.1
2023-02-22T12:05:01.620Z,69
2023-02-22T12:06:02.050Z,68
2023-02-22T12:07:01.553Z,68.4
2023-02-22T12:08:10.699Z,67.8
2023-02-22T12:09:01.529Z,68.6
2023-02-22T12:10:01.978Z,68.6
2023-02-22T12:11:03.087Z,68.7
2023-02-22T12:12:01.958Z,69.1
2023-02-22T12:13:01.402Z,69.1
2023-02-22T12:14:01.902Z,68.8
2023-02-22T12:15:02.995Z,68.2
2023-02-22T12:16:01.956Z,67.6
2023-02-22T12:18:01.793Z,68.6
2023-02-22T12:19:02.305Z,67.9
2023-02-22T12:20:01.799Z,67.5
2023-02-22T12:21:03.941Z,69.3
2023-02-22T12:22:01.719Z,67.8
2023-02-22T12:23:02.201Z,68.7
2023-02-22T12:24:01.660Z,69.2
2023-02-22T12:25:09.450Z,68.7
2023-02-22T12:26:01.645Z,69.3
2023-02-22T12:27:05.748Z,68.6
2023-02-22T12:28:07.874Z,68.1
2023-02-22T12:29:02.052Z,68.5
2023-02-22T12:30:01.594Z,69.1
2023-02-22T12:31:02.115Z,68.6
2023-02-22T12:32:03.201Z,69.8
2023-02-22T12:33:02.186Z,68.6
2023-02-22T12:34:03.338Z,69.3
2023-02-22T12:35:02.018Z,68.7
2023-02-22T12:36:01.407Z,68.1
2023-02-22T12:37:01.893Z,69.3
2023-02-22T12:38:03.124Z,68
2023-02-22T12:39:01.844Z,68.9
2023-02-22T12:40:03.011Z,68.1
2023-02-22T12:41:01.788Z,68.6
2023-02-22T12:42:02.285Z,68.8
2023-02-22T12:43:01.810Z,69.2
2023-02-22T12:44:02.321Z,68.8
2023-02-22T12:45:01.738Z,69.6
2023-02-22T12:46:02.291Z,69.4
2023-02-22T12:47:01.731Z,68.7
2023-02-22T12:48:02.227Z,70
2023-02-22T12:49:01.658Z,68.3
2023-02-22T12:50:02.127Z,68.2
2023-02-22T12:51:03.320Z,68.4
2023-02-22T12:52:12.400Z,68.4
2023-02-22T12:53:02.517Z,68.7
2023-02-22T12:54:02.045Z,67.8
2023-02-22T12:55:01.564Z,68.8
2023-02-22T12:56:02.066Z,68.4
2023-02-22T12:57:03.211Z,68.1
2023-02-22T12:58:02.016Z,68.3
2023-02-22T12:59:03.167Z,68
2023-02-22T13:00:03.842Z,69
2023-02-22T13:01:05.775Z,68.4
2023-02-22T13:02:02.021Z,68.3
2023-02-22T13:03:03.027Z,68.4
2023-02-22T13:04:11.411Z,68.6
2023-02-22T13:05:02.355Z,68.7
2023-02-22T13:06:01.805Z,68.5
2023-02-22T13:07:02.281Z,69.2
2023-02-22T13:08:03.415Z,68
2023-02-22T13:09:02.200Z,69
2023-02-22T13:10:01.714Z,67.9
2023-02-22T13:11:02.203Z,68
2023-02-22T13:12:03.320Z,68.4
2023-02-22T13:13:02.125Z,68
2023-02-22T13:14:01.651Z,67.8
2023-02-22T13:15:02.122Z,68.1
2023-02-22T13:16:03.345Z,68.6
2023-02-22T13:17:02.066Z,68.7
2023-02-22T13:18:03.229Z,68
2023-02-22T13:19:02.039Z,68.7
2023-02-22T13:20:03.156Z,68.6
2023-02-22T13:21:01.958Z,69.3
2023-02-22T13:22:01.483Z,68.6
2023-02-22T13:23:03.567Z,67.8
2023-02-22T13:24:01.412Z,68
2023-02-22T13:25:03.581Z,68.8
2023-02-22T13:26:01.311Z,68.1
2023-02-22T13:27:01.802Z,69.3
2023-02-22T13:28:02.280Z,69.1